LHSM/SOB METAR and TAF weather

Enter ICAO airport designator
Station Type Date Time Source
LHSM METAR 2019/04/20 15:45 UTC NOAA

LHSM 201545Z 19006KT CAVOK 20/00 Q1026 NOSIG


Station Type Date Time Source
LHSM Decoded METAR 2019/04/20 15:45 UTC NOAA

Station name not available
Apr 20, 2019 - 11:45 AM EDT / 2019.04.20 1545 UTC
Wind: from the S (190 degrees) at 7 MPH (6 KT):0
Visibility: greater than 7 mile(s):0
Temperature: 68 F (20 C)
Dew Point: 32 F (0 C)
Relative Humidity: 26%
Pressure (altimeter): 30.30 in. Hg (1026 hPa)
ob: LHSM 201545Z 19006KT CAVOK 20/00 Q1026 NOSIG
cycle: 16

Station Type Date Time Source
LHSM TAF UTC NOAA

Error!

Example: see airport list